sensor_id;sensor_type;location;lat;lon;timestamp;temperature;humidity
38406;DHT22;24186;50.824;4.314;2022-07-04T00:00:43;23.70;51.00
38406;DHT22;24186;50.824;4.314;2022-07-04T00:03:09;23.70;51.10
38406;DHT22;24186;50.824;4.314;2022-07-04T00:05:35;23.70;51.10
38406;DHT22;24186;50.824;4.314;2022-07-04T00:08:00;23.70;51.10
38406;DHT22;24186;50.824;4.314;2022-07-04T00:10:26;23.70;51.10
38406;DHT22;24186;50.824;4.314;2022-07-04T00:12:52;23.70;51.10
38406;DHT22;24186;50.824;4.314;2022-07-04T00:15:18;23.70;51.10
38406;DHT22;24186;50.824;4.314;2022-07-04T00:17:43;23.70;51.70
38406;DHT22;24186;50.824;4.314;2022-07-04T00:20:10;23.70;51.10
38406;DHT22;24186;50.824;4.314;2022-07-04T00:22:36;23.70;51.10
38406;DHT22;24186;50.824;4.314;2022-07-04T00:25:03;23.70;51.10
38406;DHT22;24186;50.824;4.314;2022-07-04T00:27:28;23.70;51.10
38406;DHT22;24186;50.824;4.314;2022-07-04T00:29:54;23.70;51.10
38406;DHT22;24186;50.824;4.314;2022-07-04T00:32:20;23.70;51.20
38406;DHT22;24186;50.824;4.314;2022-07-04T00:34:46;23.70;51.20
38406;DHT22;24186;50.824;4.314;2022-07-04T00:37:11;23.70;51.20
38406;DHT22;24186;50.824;4.314;2022-07-04T00:39:37;23.70;51.20
38406;DHT22;24186;50.824;4.314;2022-07-04T00:42:04;23.70;51.20
38406;DHT22;24186;50.824;4.314;2022-07-04T00:44:31;23.70;51.20
38406;DHT22;24186;50.824;4.314;2022-07-04T00:46:57;23.60;51.20
38406;DHT22;24186;50.824;4.314;2022-07-04T00:49:22;23.70;51.30
38406;DHT22;24186;50.824;4.314;2022-07-04T00:51:48;23.70;51.20
38406;DHT22;24186;50.824;4.314;2022-07-04T00:54:15;23.60;51.20
38406;DHT22;24186;50.824;4.314;2022-07-04T00:56:44;23.60;51.20
38406;DHT22;24186;50.824;4.314;2022-07-04T00:59:11;23.60;51.20
38406;DHT22;24186;50.824;4.314;2022-07-04T01:01:37;23.60;51.20
38406;DHT22;24186;50.824;4.314;2022-07-04T01:04:04;23.60;51.30
38406;DHT22;24186;50.824;4.314;2022-07-04T01:06:30;23.60;51.30
38406;DHT22;24186;50.824;4.314;2022-07-04T01:08:56;23.60;51.30
38406;DHT22;24186;50.824;4.314;2022-07-04T01:11:22;23.60;51.30
38406;DHT22;24186;50.824;4.314;2022-07-04T01:13:48;23.60;51.40
38406;DHT22;24186;50.824;4.314;2022-07-04T01:16:14;23.60;51.40
38406;DHT22;24186;50.824;4.314;2022-07-04T01:18:40;23.60;51.40
38406;DHT22;24186;50.824;4.314;2022-07-04T01:21:07;23.50;51.40
38406;DHT22;24186;50.824;4.314;2022-07-04T01:23:40;23.60;51.50
38406;DHT22;24186;50.824;4.314;2022-07-04T01:26:07;23.50;51.40
38406;DHT22;24186;50.824;4.314;2022-07-04T01:28:33;23.50;51.50
38406;DHT22;24186;50.824;4.314;2022-07-04T01:30:59;23.50;51.50
38406;DHT22;24186;50.824;4.314;2022-07-04T01:33:25;23.50;51.50
38406;DHT22;24186;50.824;4.314;2022-07-04T01:35:51;23.50;51.50
38406;DHT22;24186;50.824;4.314;2022-07-04T01:38:17;23.50;51.50
38406;DHT22;24186;50.824;4.314;2022-07-04T01:40:43;23.50;51.60
38406;DHT22;24186;50.824;4.314;2022-07-04T01:43:09;23.50;51.60
38406;DHT22;24186;50.824;4.314;2022-07-04T01:45:35;23.50;51.60
38406;DHT22;24186;50.824;4.314;2022-07-04T01:48:07;23.50;51.60
38406;DHT22;24186;50.824;4.314;2022-07-04T01:50:34;23.50;51.60
38406;DHT22;24186;50.824;4.314;2022-07-04T01:53:00;23.50;51.70
38406;DHT22;24186;50.824;4.314;2022-07-04T01:55:26;23.50;51.70
38406;DHT22;24186;50.824;4.314;2022-07-04T01:57:52;23.50;51.70
38406;DHT22;24186;50.824;4.314;2022-07-04T02:00:18;23.50;51.70
38406;DHT22;24186;50.824;4.314;2022-07-04T02:03:02;23.50;51.70
38406;DHT22;24186;50.824;4.314;2022-07-04T02:05:28;23.50;51.70
38406;DHT22;24186;50.824;4.314;2022-07-04T02:07:54;23.40;51.70
38406;DHT22;24186;50.824;4.314;2022-07-04T02:10:20;23.40;51.80
38406;DHT22;24186;50.824;4.314;2022-07-04T02:12:46;23.40;51.80
38406;DHT22;24186;50.824;4.314;2022-07-04T02:15:34;23.40;51.80
38406;DHT22;24186;50.824;4.314;2022-07-04T02:18:01;23.40;51.80
38406;DHT22;24186;50.824;4.314;2022-07-04T02:20:28;23.40;51.80
38406;DHT22;24186;50.824;4.314;2022-07-04T02:22:54;23.40;51.80
38406;DHT22;24186;50.824;4.314;2022-07-04T02:25:20;23.40;51.90
38406;DHT22;24186;50.824;4.314;2022-07-04T02:27:46;23.40;51.90
38406;DHT22;24186;50.824;4.314;2022-07-04T02:30:12;23.40;51.90
38406;DHT22;24186;50.824;4.314;2022-07-04T02:32:38;23.40;51.90
38406;DHT22;24186;50.824;4.314;2022-07-04T02:35:05;23.40;51.90
38406;DHT22;24186;50.824;4.314;2022-07-04T02:37:31;23.40;51.90
38406;DHT22;24186;50.824;4.314;2022-07-04T02:39:56;23.40;51.90
38406;DHT22;24186;50.824;4.314;2022-07-04T02:42:22;23.40;51.90
38406;DHT22;24186;50.824;4.314;2022-07-04T02:44:48;23.30;51.90
38406;DHT22;24186;50.824;4.314;2022-07-04T02:47:15;23.30;51.90
38406;DHT22;24186;50.824;4.314;2022-07-04T02:49:41;23.30;51.90
38406;DHT22;24186;50.824;4.314;2022-07-04T02:52:07;23.30;51.90
38406;DHT22;24186;50.824;4.314;2022-07-04T02:54:33;23.30;52.00
38406;DHT22;24186;50.824;4.314;2022-07-04T02:56:59;23.30;52.00
38406;DHT22;24186;50.824;4.314;2022-07-04T02:59:24;23.30;52.00
38406;DHT22;24186;50.824;4.314;2022-07-04T03:01:50;23.30;52.00
38406;DHT22;24186;50.824;4.314;2022-07-04T03:04:16;23.30;52.00
38406;DHT22;24186;50.824;4.314;2022-07-04T03:06:42;23.30;52.00
38406;DHT22;24186;50.824;4.314;2022-07-04T03:09:09;23.30;52.00
38406;DHT22;24186;50.824;4.314;2022-07-04T03:11:35;23.30;52.00
38406;DHT22;24186;50.824;4.314;2022-07-04T03:14:01;23.30;52.00
38406;DHT22;24186;50.824;4.314;2022-07-04T03:16:28;23.30;52.10
38406;DHT22;24186;50.824;4.314;2022-07-04T03:18:54;23.30;52.10
38406;DHT22;24186;50.824;4.314;2022-07-04T03:21:20;23.30;52.10
38406;DHT22;24186;50.824;4.314;2022-07-04T03:23:45;23.30;52.10
38406;DHT22;24186;50.824;4.314;2022-07-04T03:29:09;23.30;52.10
38406;DHT22;24186;50.824;4.314;2022-07-04T03:31:35;23.20;52.00
38406;DHT22;24186;50.824;4.314;2022-07-04T03:34:01;23.20;52.10
38406;DHT22;24186;50.824;4.314;2022-07-04T03:36:26;23.20;52.00
38406;DHT22;24186;50.824;4.314;2022-07-04T03:38:52;23.20;52.00
38406;DHT22;24186;50.824;4.314;2022-07-04T03:41:18;23.20;52.10
38406;DHT22;24186;50.824;4.314;2022-07-04T03:43:43;23.20;52.10
38406;DHT22;24186;50.824;4.314;2022-07-04T03:46:09;23.20;52.10
38406;DHT22;24186;50.824;4.314;2022-07-04T03:48:35;23.20;52.10
38406;DHT22;24186;50.824;4.314;2022-07-04T03:51:01;23.20;52.10
38406;DHT22;24186;50.824;4.314;2022-07-04T03:53:27;23.20;52.10
38406;DHT22;24186;50.824;4.314;2022-07-04T03:55:52;23.20;52.10
38406;DHT22;24186;50.824;4.314;2022-07-04T03:58:18;23.20;52.10
38406;DHT22;24186;50.824;4.314;2022-07-04T04:00:44;23.20;52.10
38406;DHT22;24186;50.824;4.314;2022-07-04T04:03:11;23.20;52.10
38406;DHT22;24186;50.824;4.314;2022-07-04T04:05:56;23.20;52.10
38406;DHT22;24186;50.824;4.314;2022-07-04T04:08:22;23.10;52.00
38406;DHT22;24186;50.824;4.314;2022-07-04T04:10:49;23.10;52.10
38406;DHT22;24186;50.824;4.314;2022-07-04T04:13:14;23.10;52.10
38406;DHT22;24186;50.824;4.314;2022-07-04T04:15:40;23.10;52.10
38406;DHT22;24186;50.824;4.314;2022-07-04T04:18:06;23.10;52.10
38406;DHT22;24186;50.824;4.314;2022-07-04T04:20:32;23.10;52.10
38406;DHT22;24186;50.824;4.314;2022-07-04T04:22:57;23.10;52.10
38406;DHT22;24186;50.824;4.314;2022-07-04T04:25:23;23.10;52.10
38406;DHT22;24186;50.824;4.314;2022-07-04T04:27:49;23.10;52.10
38406;DHT22;24186;50.824;4.314;2022-07-04T04:30:15;23.10;52.10
38406;DHT22;24186;50.824;4.314;2022-07-04T04:32:41;23.10;52.10
38406;DHT22;24186;50.824;4.314;2022-07-04T04:35:07;23.10;52.10
38406;DHT22;24186;50.824;4.314;2022-07-04T04:37:33;23.10;52.10
38406;DHT22;24186;50.824;4.314;2022-07-04T04:39:58;23.10;52.10
38406;DHT22;24186;50.824;4.314;2022-07-04T04:42:24;23.10;52.10
38406;DHT22;24186;50.824;4.314;2022-07-04T04:44:50;23.10;52.10
38406;DHT22;24186;50.824;4.314;2022-07-04T04:47:16;23.10;52.10
38406;DHT22;24186;50.824;4.314;2022-07-04T04:49:42;23.10;52.10
38406;DHT22;24186;50.824;4.314;2022-07-04T04:52:07;23.10;52.10
38406;DHT22;24186;50.824;4.314;2022-07-04T04:54:34;23.10;52.10
38406;DHT22;24186;50.824;4.314;2022-07-04T04:57:00;23.10;52.10
38406;DHT22;24186;50.824;4.314;2022-07-04T04:59:27;23.10;52.10
38406;DHT22;24186;50.824;4.314;2022-07-04T05:01:53;23.10;52.10
38406;DHT22;24186;50.824;4.314;2022-07-04T05:04:18;23.10;52.10
38406;DHT22;24186;50.824;4.314;2022-07-04T05:06:45;23.10;52.10
38406;DHT22;24186;50.824;4.314;2022-07-04T05:09:11;23.10;52.10
38406;DHT22;24186;50.824;4.314;2022-07-04T05:11:37;23.10;52.10
38406;DHT22;24186;50.824;4.314;2022-07-04T05:14:02;23.10;52.10
38406;DHT22;24186;50.824;4.314;2022-07-04T05:16:28;23.10;52.10
38406;DHT22;24186;50.824;4.314;2022-07-04T05:18:54;23.10;52.20
38406;DHT22;24186;50.824;4.314;2022-07-04T05:21:20;23.10;52.20
38406;DHT22;24186;50.824;4.314;2022-07-04T05:23:46;23.10;52.20
38406;DHT22;24186;50.824;4.314;2022-07-04T05:26:11;23.10;52.20
38406;DHT22;24186;50.824;4.314;2022-07-04T05:28:37;23.10;52.20
38406;DHT22;24186;50.824;4.314;2022-07-04T05:31:03;23.10;52.20
38406;DHT22;24186;50.824;4.314;2022-07-04T05:33:29;23.10;52.20
38406;DHT22;24186;50.824;4.314;2022-07-04T05:35:55;23.10;52.20
38406;DHT22;24186;50.824;4.314;2022-07-04T05:38:20;23.10;52.30
38406;DHT22;24186;50.824;4.314;2022-07-04T05:40:46;23.10;52.30
38406;DHT22;24186;50.824;4.314;2022-07-04T05:43:12;23.10;52.30
38406;DHT22;24186;50.824;4.314;2022-07-04T05:45:38;23.10;52.30
38406;DHT22;24186;50.824;4.314;2022-07-04T05:48:03;23.20;52.40
38406;DHT22;24186;50.824;4.314;2022-07-04T05:50:29;23.10;52.40
38406;DHT22;24186;50.824;4.314;2022-07-04T05:52:55;23.10;52.30
38406;DHT22;24186;50.824;4.314;2022-07-04T05:55:21;23.10;52.40
38406;DHT22;24186;50.824;4.314;2022-07-04T05:57:47;23.10;52.40
38406;DHT22;24186;50.824;4.314;2022-07-04T06:00:13;23.20;52.40
38406;DHT22;24186;50.824;4.314;2022-07-04T06:02:39;23.20;52.50
38406;DHT22;24186;50.824;4.314;2022-07-04T06:05:07;23.20;52.50
38406;DHT22;24186;50.824;4.314;2022-07-04T06:07:33;23.10;52.40
38406;DHT22;24186;50.824;4.314;2022-07-04T06:09:58;23.20;52.50
38406;DHT22;24186;50.824;4.314;2022-07-04T06:12:24;23.20;52.50
38406;DHT22;24186;50.824;4.314;2022-07-04T06:14:50;23.20;52.50
38406;DHT22;24186;50.824;4.314;2022-07-04T06:17:16;23.20;52.50
38406;DHT22;24186;50.824;4.314;2022-07-04T06:19:41;23.20;52.50
38406;DHT22;24186;50.824;4.314;2022-07-04T06:22:07;23.20;52.50
38406;DHT22;24186;50.824;4.314;2022-07-04T06:24:33;23.20;52.50
38406;DHT22;24186;50.824;4.314;2022-07-04T06:26:58;23.20;52.50
38406;DHT22;24186;50.824;4.314;2022-07-04T06:29:24;23.10;52.40
38406;DHT22;24186;50.824;4.314;2022-07-04T06:31:50;23.10;52.50
38406;DHT22;24186;50.824;4.314;2022-07-04T06:34:15;23.10;52.50
38406;DHT22;24186;50.824;4.314;2022-07-04T06:37:00;23.10;52.50
38406;DHT22;24186;50.824;4.314;2022-07-04T06:39:25;23.10;52.50
38406;DHT22;24186;50.824;4.314;2022-07-04T06:41:51;23.10;52.50
38406;DHT22;24186;50.824;4.314;2022-07-04T06:44:17;23.10;52.50
38406;DHT22;24186;50.824;4.314;2022-07-04T06:46:42;23.10;52.50
38406;DHT22;24186;50.824;4.314;2022-07-04T06:49:09;23.10;52.50
38406;DHT22;24186;50.824;4.314;2022-07-04T06:51:35;23.10;52.50
38406;DHT22;24186;50.824;4.314;2022-07-04T06:54:01;23.10;52.40
38406;DHT22;24186;50.824;4.314;2022-07-04T06:56:27;23.20;52.50
38406;DHT22;24186;50.824;4.314;2022-07-04T06:58:53;23.20;52.50
38406;DHT22;24186;50.824;4.314;2022-07-04T07:01:18;23.20;52.50
38406;DHT22;24186;50.824;4.314;2022-07-04T07:03:44;23.20;52.40
38406;DHT22;24186;50.824;4.314;2022-07-04T07:06:10;23.10;52.40
38406;DHT22;24186;50.824;4.314;2022-07-04T07:08:35;23.20;52.40
38406;DHT22;24186;50.824;4.314;2022-07-04T07:11:01;23.20;52.40
38406;DHT22;24186;50.824;4.314;2022-07-04T07:13:39;23.20;52.30
38406;DHT22;24186;50.824;4.314;2022-07-04T07:16:05;23.20;52.30
38406;DHT22;24186;50.824;4.314;2022-07-04T07:18:31;23.20;52.30
38406;DHT22;24186;50.824;4.314;2022-07-04T07:20:57;23.20;52.30
38406;DHT22;24186;50.824;4.314;2022-07-04T07:23:22;23.20;52.20
38406;DHT22;24186;50.824;4.314;2022-07-04T07:25:48;23.20;52.20
38406;DHT22;24186;50.824;4.314;2022-07-04T07:28:14;23.20;52.10
38406;DHT22;24186;50.824;4.314;2022-07-04T07:30:39;23.20;52.10
38406;DHT22;24186;50.824;4.314;2022-07-04T07:33:05;23.20;52.10
38406;DHT22;24186;50.824;4.314;2022-07-04T07:35:31;23.20;52.00
38406;DHT22;24186;50.824;4.314;2022-07-04T07:37:57;23.20;52.00
38406;DHT22;24186;50.824;4.314;2022-07-04T07:40:23;23.20;52.10
38406;DHT22;24186;50.824;4.314;2022-07-04T07:42:49;23.20;52.10
38406;DHT22;24186;50.824;4.314;2022-07-04T07:45:15;23.20;52.00
38406;DHT22;24186;50.824;4.314;2022-07-04T07:47:41;23.30;52.10
38406;DHT22;24186;50.824;4.314;2022-07-04T07:50:07;23.30;52.10
38406;DHT22;24186;50.824;4.314;2022-07-04T07:52:33;23.30;52.10
38406;DHT22;24186;50.824;4.314;2022-07-04T07:54:59;23.30;52.10
38406;DHT22;24186;50.824;4.314;2022-07-04T07:57:25;23.30;52.00
38406;DHT22;24186;50.824;4.314;2022-07-04T07:59:50;23.30;52.10
38406;DHT22;24186;50.824;4.314;2022-07-04T08:02:16;23.30;52.00
38406;DHT22;24186;50.824;4.314;2022-07-04T08:04:42;23.30;51.90
38406;DHT22;24186;50.824;4.314;2022-07-04T08:07:09;23.30;51.80
38406;DHT22;24186;50.824;4.314;2022-07-04T08:09:36;23.30;51.70
38406;DHT22;24186;50.824;4.314;2022-07-04T08:12:04;23.30;51.60
38406;DHT22;24186;50.824;4.314;2022-07-04T08:14:30;23.30;51.60
38406;DHT22;24186;50.824;4.314;2022-07-04T08:16:57;23.30;51.50
38406;DHT22;24186;50.824;4.314;2022-07-04T08:19:24;23.30;51.50
38406;DHT22;24186;50.824;4.314;2022-07-04T08:21:50;23.40;51.50
38406;DHT22;24186;50.824;4.314;2022-07-04T08:24:16;23.40;51.50
38406;DHT22;24186;50.824;4.314;2022-07-04T08:26:42;23.40;51.40
38406;DHT22;24186;50.824;4.314;2022-07-04T08:29:08;23.40;51.40
38406;DHT22;24186;50.824;4.314;2022-07-04T08:31:33;23.40;51.40
38406;DHT22;24186;50.824;4.314;2022-07-04T08:33:59;23.40;51.40
38406;DHT22;24186;50.824;4.314;2022-07-04T08:36:25;23.40;51.30
38406;DHT22;24186;50.824;4.314;2022-07-04T08:38:51;23.40;51.20
38406;DHT22;24186;50.824;4.314;2022-07-04T08:41:18;23.40;51.10
38406;DHT22;24186;50.824;4.314;2022-07-04T08:43:46;23.40;51.00
38406;DHT22;24186;50.824;4.314;2022-07-04T08:46:15;23.40;51.50
38406;DHT22;24186;50.824;4.314;2022-07-04T08:48:47;23.40;51.50
38406;DHT22;24186;50.824;4.314;2022-07-04T08:51:19;23.50;50.90
38406;DHT22;24186;50.824;4.314;2022-07-04T08:53:52;23.50;50.80
38406;DHT22;24186;50.824;4.314;2022-07-04T08:56:22;23.50;50.70
38406;DHT22;24186;50.824;4.314;2022-07-04T08:59:07;23.50;50.70
38406;DHT22;24186;50.824;4.314;2022-07-04T09:01:33;23.50;50.80
38406;DHT22;24186;50.824;4.314;2022-07-04T09:04:00;23.50;50.80
38406;DHT22;24186;50.824;4.314;2022-07-04T09:06:27;23.50;50.70
38406;DHT22;24186;50.824;4.314;2022-07-04T09:08:54;23.50;50.70
38406;DHT22;24186;50.824;4.314;2022-07-04T09:11:20;23.50;50.60
38406;DHT22;24186;50.824;4.314;2022-07-04T09:13:46;23.50;50.50
38406;DHT22;24186;50.824;4.314;2022-07-04T09:16:12;23.50;50.50
38406;DHT22;24186;50.824;4.314;2022-07-04T09:18:38;23.50;50.50
38406;DHT22;24186;50.824;4.314;2022-07-04T09:21:06;23.50;50.50
38406;DHT22;24186;50.824;4.314;2022-07-04T09:23:42;23.60;50.60
38406;DHT22;24186;50.824;4.314;2022-07-04T09:26:20;23.60;50.60
38406;DHT22;24186;50.824;4.314;2022-07-04T09:28:54;23.60;50.60
38406;DHT22;24186;50.824;4.314;2022-07-04T09:31:24;23.60;50.70
38406;DHT22;24186;50.824;4.314;2022-07-04T09:36:25;23.60;50.70
38406;DHT22;24186;50.824;4.314;2022-07-04T09:39:14;23.60;50.80
38406;DHT22;24186;50.824;4.314;2022-07-04T09:44:20;23.70;50.80
38406;DHT22;24186;50.824;4.314;2022-07-04T09:46:46;23.70;50.70
38406;DHT22;24186;50.824;4.314;2022-07-04T09:49:12;23.70;50.70
38406;DHT22;24186;50.824;4.314;2022-07-04T09:51:50;23.70;50.70
38406;DHT22;24186;50.824;4.314;2022-07-04T09:54:45;23.70;50.80
38406;DHT22;24186;50.824;4.314;2022-07-04T09:57:12;23.70;50.90
38406;DHT22;24186;50.824;4.314;2022-07-04T09:59:46;23.80;50.90
38406;DHT22;24186;50.824;4.314;2022-07-04T10:02:12;23.70;50.90
38406;DHT22;24186;50.824;4.314;2022-07-04T10:04:51;23.80;50.90
38406;DHT22;24186;50.824;4.314;2022-07-04T10:07:35;23.80;50.90
38406;DHT22;24186;50.824;4.314;2022-07-04T10:10:44;23.80;50.90
38406;DHT22;24186;50.824;4.314;2022-07-04T10:13:11;23.80;50.90
38406;DHT22;24186;50.824;4.314;2022-07-04T10:15:40;23.80;50.90
38406;DHT22;24186;50.824;4.314;2022-07-04T10:18:07;23.80;50.90
38406;DHT22;24186;50.824;4.314;2022-07-04T10:20:34;23.80;50.80
38406;DHT22;24186;50.824;4.314;2022-07-04T10:22:59;23.90;50.90
38406;DHT22;24186;50.824;4.314;2022-07-04T10:25:26;23.90;50.90
38406;DHT22;24186;50.824;4.314;2022-07-04T10:27:52;23.90;50.80
38406;DHT22;24186;50.824;4.314;2022-07-04T10:30:23;23.90;50.80
38406;DHT22;24186;50.824;4.314;2022-07-04T10:32:50;23.90;50.70
38406;DHT22;24186;50.824;4.314;2022-07-04T10:35:17;23.90;50.70
38406;DHT22;24186;50.824;4.314;2022-07-04T10:38:18;23.90;50.70
38406;DHT22;24186;50.824;4.314;2022-07-04T10:48:30;23.90;50.60
38406;DHT22;24186;50.824;4.314;2022-07-04T10:51:00;23.90;50.40
38406;DHT22;24186;50.824;4.314;2022-07-04T10:53:28;23.90;50.30
38406;DHT22;24186;50.824;4.314;2022-07-04T10:55:55;23.90;50.30
38406;DHT22;24186;50.824;4.314;2022-07-04T10:58:42;23.90;50.30
38406;DHT22;24186;50.824;4.314;2022-07-04T11:01:16;23.90;50.30
38406;DHT22;24186;50.824;4.314;2022-07-04T11:03:47;23.90;50.40
38406;DHT22;24186;50.824;4.314;2022-07-04T11:09:21;24.00;50.40
38406;DHT22;24186;50.824;4.314;2022-07-04T11:12:00;23.90;50.30
38406;DHT22;24186;50.824;4.314;2022-07-04T11:14:46;23.90;50.40
38406;DHT22;24186;50.824;4.314;2022-07-04T11:17:13;24.00;50.40
38406;DHT22;24186;50.824;4.314;2022-07-04T11:19:40;24.00;50.40
38406;DHT22;24186;50.824;4.314;2022-07-04T11:22:07;24.00;50.30
38406;DHT22;24186;50.824;4.314;2022-07-04T11:24:34;24.00;50.30
38406;DHT22;24186;50.824;4.314;2022-07-04T11:27:00;24.00;50.30
38406;DHT22;24186;50.824;4.314;2022-07-04T11:29:27;24.00;50.30
38406;DHT22;24186;50.824;4.314;2022-07-04T11:31:53;24.00;50.30
38406;DHT22;24186;50.824;4.314;2022-07-04T11:34:20;24.00;50.30
38406;DHT22;24186;50.824;4.314;2022-07-04T11:36:49;24.00;50.30
38406;DHT22;24186;50.824;4.314;2022-07-04T11:39:19;24.00;50.30
38406;DHT22;24186;50.824;4.314;2022-07-04T11:41:50;24.00;50.30
38406;DHT22;24186;50.824;4.314;2022-07-04T11:44:36;24.00;50.30
38406;DHT22;24186;50.824;4.314;2022-07-04T11:47:30;24.00;50.30
38406;DHT22;24186;50.824;4.314;2022-07-04T11:49:58;24.00;50.30
38406;DHT22;24186;50.824;4.314;2022-07-04T11:52:27;24.00;50.30
38406;DHT22;24186;50.824;4.314;2022-07-04T11:54:53;24.00;50.10
38406;DHT22;24186;50.824;4.314;2022-07-04T11:57:33;24.00;50.10
38406;DHT22;24186;50.824;4.314;2022-07-04T12:00:07;24.00;50.10
38406;DHT22;24186;50.824;4.314;2022-07-04T12:02:34;24.00;50.10
38406;DHT22;24186;50.824;4.314;2022-07-04T12:05:02;24.00;50.10
38406;DHT22;24186;50.824;4.314;2022-07-04T12:07:30;24.00;50.10
38406;DHT22;24186;50.824;4.314;2022-07-04T12:10:10;24.00;50.10
38406;DHT22;24186;50.824;4.314;2022-07-04T12:12:50;24.00;50.10
38406;DHT22;24186;50.824;4.314;2022-07-04T12:15:17;24.10;50.20
38406;DHT22;24186;50.824;4.314;2022-07-04T12:17:43;24.10;50.00
38406;DHT22;24186;50.824;4.314;2022-07-04T12:20:16;24.10;49.90
38406;DHT22;24186;50.824;4.314;2022-07-04T12:22:56;24.00;49.80
38406;DHT22;24186;50.824;4.314;2022-07-04T12:25:32;24.10;49.90
38406;DHT22;24186;50.824;4.314;2022-07-04T12:30:31;24.10;49.80
38406;DHT22;24186;50.824;4.314;2022-07-04T12:33:02;24.10;49.70
38406;DHT22;24186;50.824;4.314;2022-07-04T12:35:36;24.10;49.70
38406;DHT22;24186;50.824;4.314;2022-07-04T12:38:12;24.10;49.70
38406;DHT22;24186;50.824;4.314;2022-07-04T12:40:50;24.10;49.70
38406;DHT22;24186;50.824;4.314;2022-07-04T12:43:17;24.10;49.70
38406;DHT22;24186;50.824;4.314;2022-07-04T12:45:48;24.10;49.70
38406;DHT22;24186;50.824;4.314;2022-07-04T12:48:16;24.00;49.60
38406;DHT22;24186;50.824;4.314;2022-07-04T12:50:42;24.10;49.70
38406;DHT22;24186;50.824;4.314;2022-07-04T12:53:09;24.10;49.70
38406;DHT22;24186;50.824;4.314;2022-07-04T12:55:38;24.10;49.70
38406;DHT22;24186;50.824;4.314;2022-07-04T12:58:04;24.10;49.70
38406;DHT22;24186;50.824;4.314;2022-07-04T13:00:30;24.10;49.70
38406;DHT22;24186;50.824;4.314;2022-07-04T13:02:56;24.00;49.70
38406;DHT22;24186;50.824;4.314;2022-07-04T13:05:21;24.10;49.70
38406;DHT22;24186;50.824;4.314;2022-07-04T13:07:47;24.10;49.70
38406;DHT22;24186;50.824;4.314;2022-07-04T13:10:13;24.10;49.80
38406;DHT22;24186;50.824;4.314;2022-07-04T13:12:38;24.10;49.80
38406;DHT22;24186;50.824;4.314;2022-07-04T13:15:04;24.10;49.70
38406;DHT22;24186;50.824;4.314;2022-07-04T13:17:32;24.10;49.70
38406;DHT22;24186;50.824;4.314;2022-07-04T13:19:57;24.10;49.80
38406;DHT22;24186;50.824;4.314;2022-07-04T13:22:23;24.10;49.70
38406;DHT22;24186;50.824;4.314;2022-07-04T13:24:50;24.10;49.60
38406;DHT22;24186;50.824;4.314;2022-07-04T13:27:17;24.10;49.40
38406;DHT22;24186;50.824;4.314;2022-07-04T13:29:43;24.00;49.30
38406;DHT22;24186;50.824;4.314;2022-07-04T13:32:09;24.10;49.40
38406;DHT22;24186;50.824;4.314;2022-07-04T13:34:35;24.10;49.40
38406;DHT22;24186;50.824;4.314;2022-07-04T13:37:02;24.10;49.40
38406;DHT22;24186;50.824;4.314;2022-07-04T13:39:29;24.00;49.40
38406;DHT22;24186;50.824;4.314;2022-07-04T13:41:55;24.10;49.50
38406;DHT22;24186;50.824;4.314;2022-07-04T13:44:21;24.10;49.50
38406;DHT22;24186;50.824;4.314;2022-07-04T13:46:46;24.10;49.40
38406;DHT22;24186;50.824;4.314;2022-07-04T13:49:12;24.10;49.40
38406;DHT22;24186;50.824;4.314;2022-07-04T13:51:39;24.10;49.30
38406;DHT22;24186;50.824;4.314;2022-07-04T13:54:06;24.10;49.30
38406;DHT22;24186;50.824;4.314;2022-07-04T13:56:34;24.10;49.30
38406;DHT22;24186;50.824;4.314;2022-07-04T13:59:00;24.10;49.40
38406;DHT22;24186;50.824;4.314;2022-07-04T14:01:27;24.10;49.40
38406;DHT22;24186;50.824;4.314;2022-07-04T14:03:53;24.10;49.40
38406;DHT22;24186;50.824;4.314;2022-07-04T14:06:19;24.10;49.20
38406;DHT22;24186;50.824;4.314;2022-07-04T14:08:45;24.10;49.20
38406;DHT22;24186;50.824;4.314;2022-07-04T14:11:11;24.10;49.30
38406;DHT22;24186;50.824;4.314;2022-07-04T14:13:38;24.10;49.20
38406;DHT22;24186;50.824;4.314;2022-07-04T14:16:05;24.10;49.00
38406;DHT22;24186;50.824;4.314;2022-07-04T14:18:32;24.10;48.90
38406;DHT22;24186;50.824;4.314;2022-07-04T14:20:58;24.10;48.90
38406;DHT22;24186;50.824;4.314;2022-07-04T14:23:23;24.10;48.90
38406;DHT22;24186;50.824;4.314;2022-07-04T14:26:10;24.10;48.90
38406;DHT22;24186;50.824;4.314;2022-07-04T14:28:37;24.10;48.80
38406;DHT22;24186;50.824;4.314;2022-07-04T14:31:03;24.10;48.80
38406;DHT22;24186;50.824;4.314;2022-07-04T14:33:29;24.10;49.30
38406;DHT22;24186;50.824;4.314;2022-07-04T14:35:55;24.10;48.70
38406;DHT22;24186;50.824;4.314;2022-07-04T14:38:20;24.10;48.80
38406;DHT22;24186;50.824;4.314;2022-07-04T14:40:46;24.10;48.80
38406;DHT22;24186;50.824;4.314;2022-07-04T14:43:15;24.20;48.80
38406;DHT22;24186;50.824;4.314;2022-07-04T14:45:43;24.10;48.70
38406;DHT22;24186;50.824;4.314;2022-07-04T14:48:09;24.10;48.70
38406;DHT22;24186;50.824;4.314;2022-07-04T14:50:35;24.10;48.70
38406;DHT22;24186;50.824;4.314;2022-07-04T14:53:01;24.10;48.70
38406;DHT22;24186;50.824;4.314;2022-07-04T14:55:27;24.10;48.70
38406;DHT22;24186;50.824;4.314;2022-07-04T14:57:52;24.10;48.80
38406;DHT22;24186;50.824;4.314;2022-07-04T15:00:18;24.10;48.80
38406;DHT22;24186;50.824;4.314;2022-07-04T15:02:44;24.10;48.80
38406;DHT22;24186;50.824;4.314;2022-07-04T15:05:12;24.10;48.80
38406;DHT22;24186;50.824;4.314;2022-07-04T15:07:38;24.10;48.80
38406;DHT22;24186;50.824;4.314;2022-07-04T15:10:05;24.10;48.80
38406;DHT22;24186;50.824;4.314;2022-07-04T15:12:33;24.10;48.80
38406;DHT22;24186;50.824;4.314;2022-07-04T15:14:59;24.10;48.90
38406;DHT22;24186;50.824;4.314;2022-07-04T15:17:25;24.10;48.80
38406;DHT22;24186;50.824;4.314;2022-07-04T15:19:50;24.10;48.80
38406;DHT22;24186;50.824;4.314;2022-07-04T15:22:35;24.10;48.80
38406;DHT22;24186;50.824;4.314;2022-07-04T15:25:19;24.10;48.70
38406;DHT22;24186;50.824;4.314;2022-07-04T15:27:45;24.20;48.80
38406;DHT22;24186;50.824;4.314;2022-07-04T15:30:11;24.10;48.70
38406;DHT22;24186;50.824;4.314;2022-07-04T15:32:37;24.10;48.70
38406;DHT22;24186;50.824;4.314;2022-07-04T15:35:03;24.10;48.70
38406;DHT22;24186;50.824;4.314;2022-07-04T15:37:28;24.10;48.70
38406;DHT22;24186;50.824;4.314;2022-07-04T15:39:54;24.10;48.70
38406;DHT22;24186;50.824;4.314;2022-07-04T15:42:22;24.10;48.70
38406;DHT22;24186;50.824;4.314;2022-07-04T15:44:48;24.10;48.70
38406;DHT22;24186;50.824;4.314;2022-07-04T15:47:14;24.10;48.60
38406;DHT22;24186;50.824;4.314;2022-07-04T15:49:40;24.10;48.70
38406;DHT22;24186;50.824;4.314;2022-07-04T15:52:06;24.10;48.70
38406;DHT22;24186;50.824;4.314;2022-07-04T15:54:32;24.10;48.70